sensor_id;sensor_type;location;lat;lon;timestamp;P1;durP1;ratioP1;P2;durP2;ratioP2
6177;SDS011;3122;48.208;11.174;2022-11-20T00:04:51;3.70;;;3.27;;
6177;SDS011;3122;48.208;11.174;2022-11-20T00:09:52;4.27;;;3.80;;
6177;SDS011;3122;48.208;11.174;2022-11-20T00:14:52;5.07;;;3.70;;
6177;SDS011;3122;48.208;11.174;2022-11-20T00:19:53;5.30;;;4.63;;
6177;SDS011;3122;48.208;11.174;2022-11-20T00:24:53;4.97;;;4.47;;
6177;SDS011;3122;48.208;11.174;2022-11-20T00:29:54;6.23;;;4.03;;
6177;SDS011;3122;48.208;11.174;2022-11-20T00:34:55;5.60;;;4.87;;
6177;SDS011;3122;48.208;11.174;2022-11-20T00:39:56;6.13;;;5.53;;
6177;SDS011;3122;48.208;11.174;2022-11-20T00:44:56;7.03;;;4.20;;
6177;SDS011;3122;48.208;11.174;2022-11-20T00:49:57;7.50;;;4.67;;
6177;SDS011;3122;48.208;11.174;2022-11-20T00:54:57;4.80;;;4.20;;
6177;SDS011;3122;48.208;11.174;2022-11-20T00:59:58;7.73;;;4.87;;
6177;SDS011;3122;48.208;11.174;2022-11-20T01:04:58;4.70;;;4.20;;
6177;SDS011;3122;48.208;11.174;2022-11-20T01:09:59;6.17;;;4.87;;
6177;SDS011;3122;48.208;11.174;2022-11-20T01:14:59;6.60;;;5.20;;
6177;SDS011;3122;48.208;11.174;2022-11-20T01:20:00;4.97;;;3.80;;
6177;SDS011;3122;48.208;11.174;2022-11-20T01:25:00;5.13;;;4.40;;
6177;SDS011;3122;48.208;11.174;2022-11-20T01:30:01;5.20;;;4.70;;
6177;SDS011;3122;48.208;11.174;2022-11-20T01:35:02;5.90;;;4.87;;
6177;SDS011;3122;48.208;11.174;2022-11-20T01:40:02;5.53;;;4.30;;
6177;SDS011;3122;48.208;11.174;2022-11-20T01:45:42;5.43;;;4.60;;
6177;SDS011;3122;48.208;11.174;2022-11-20T01:50:52;6.50;;;4.40;;
6177;SDS011;3122;48.208;11.174;2022-11-20T01:55:55;6.10;;;5.00;;
6177;SDS011;3122;48.208;11.174;2022-11-20T02:00:58;7.67;;;5.87;;
6177;SDS011;3122;48.208;11.174;2022-11-20T02:06:04;6.20;;;4.60;;
6177;SDS011;3122;48.208;11.174;2022-11-20T02:11:14;6.23;;;5.27;;
6177;SDS011;3122;48.208;11.174;2022-11-20T02:16:16;6.50;;;5.20;;
6177;SDS011;3122;48.208;11.174;2022-11-20T02:26:35;5.77;;;5.20;;
6177;SDS011;3122;48.208;11.174;2022-11-20T02:31:42;5.43;;;4.90;;
6177;SDS011;3122;48.208;11.174;2022-11-20T02:36:43;7.77;;;5.13;;
6177;SDS011;3122;48.208;11.174;2022-11-20T02:41:45;6.23;;;4.50;;
6177;SDS011;3122;48.208;11.174;2022-11-20T02:46:46;5.63;;;4.63;;
6177;SDS011;3122;48.208;11.174;2022-11-20T02:51:47;5.37;;;4.60;;
6177;SDS011;3122;48.208;11.174;2022-11-20T02:56:47;6.83;;;5.07;;
6177;SDS011;3122;48.208;11.174;2022-11-20T03:01:48;5.80;;;4.53;;
6177;SDS011;3122;48.208;11.174;2022-11-20T03:06:48;7.70;;;5.50;;
6177;SDS011;3122;48.208;11.174;2022-11-20T03:11:49;7.00;;;4.80;;
6177;SDS011;3122;48.208;11.174;2022-11-20T03:16:49;6.80;;;5.27;;
6177;SDS011;3122;48.208;11.174;2022-11-20T03:21:50;5.80;;;4.90;;
6177;SDS011;3122;48.208;11.174;2022-11-20T03:26:50;5.83;;;4.63;;
6177;SDS011;3122;48.208;11.174;2022-11-20T03:31:51;8.43;;;5.90;;
6177;SDS011;3122;48.208;11.174;2022-11-20T03:36:52;6.20;;;5.10;;
6177;SDS011;3122;48.208;11.174;2022-11-20T03:41:52;6.37;;;4.60;;
6177;SDS011;3122;48.208;11.174;2022-11-20T03:46:53;5.43;;;4.57;;
6177;SDS011;3122;48.208;11.174;2022-11-20T03:51:53;5.67;;;4.70;;
6177;SDS011;3122;48.208;11.174;2022-11-20T03:56:54;7.00;;;5.03;;
6177;SDS011;3122;48.208;11.174;2022-11-20T04:01:54;7.50;;;5.00;;
6177;SDS011;3122;48.208;11.174;2022-11-20T04:06:55;6.90;;;5.00;;
6177;SDS011;3122;48.208;11.174;2022-11-20T04:11:56;5.87;;;4.80;;
6177;SDS011;3122;48.208;11.174;2022-11-20T04:16:56;5.93;;;4.70;;
6177;SDS011;3122;48.208;11.174;2022-11-20T04:21:57;5.77;;;4.83;;
6177;SDS011;3122;48.208;11.174;2022-11-20T04:26:57;4.47;;;4.07;;
6177;SDS011;3122;48.208;11.174;2022-11-20T04:31:58;5.77;;;4.67;;
6177;SDS011;3122;48.208;11.174;2022-11-20T04:36:58;8.00;;;4.67;;
6177;SDS011;3122;48.208;11.174;2022-11-20T04:41:59;7.30;;;5.00;;
6177;SDS011;3122;48.208;11.174;2022-11-20T04:47:18;5.50;;;4.30;;
6177;SDS011;3122;48.208;11.174;2022-11-20T04:52:19;5.67;;;4.80;;
6177;SDS011;3122;48.208;11.174;2022-11-20T04:57:19;5.47;;;4.37;;
6177;SDS011;3122;48.208;11.174;2022-11-20T05:02:20;6.80;;;4.83;;
6177;SDS011;3122;48.208;11.174;2022-11-20T05:07:21;7.73;;;5.23;;
6177;SDS011;3122;48.208;11.174;2022-11-20T05:12:21;7.00;;;4.67;;
6177;SDS011;3122;48.208;11.174;2022-11-20T05:17:22;5.17;;;4.50;;
6177;SDS011;3122;48.208;11.174;2022-11-20T05:22:23;6.90;;;4.67;;
6177;SDS011;3122;48.208;11.174;2022-11-20T05:27:23;6.13;;;4.43;;
6177;SDS011;3122;48.208;11.174;2022-11-20T05:32:24;6.17;;;4.43;;
6177;SDS011;3122;48.208;11.174;2022-11-20T05:37:27;5.33;;;4.40;;
6177;SDS011;3122;48.208;11.174;2022-11-20T05:42:30;5.73;;;4.20;;
6177;SDS011;3122;48.208;11.174;2022-11-20T05:47:32;6.07;;;4.70;;
6177;SDS011;3122;48.208;11.174;2022-11-20T05:52:33;4.63;;;4.17;;
6177;SDS011;3122;48.208;11.174;2022-11-20T05:57:34;6.57;;;4.50;;
6177;SDS011;3122;48.208;11.174;2022-11-20T06:02:35;6.63;;;4.30;;
6177;SDS011;3122;48.208;11.174;2022-11-20T06:07:36;6.10;;;4.07;;
6177;SDS011;3122;48.208;11.174;2022-11-20T06:12:36;5.40;;;4.47;;
6177;SDS011;3122;48.208;11.174;2022-11-20T06:17:37;5.20;;;4.60;;
6177;SDS011;3122;48.208;11.174;2022-11-20T06:22:37;4.33;;;3.93;;
6177;SDS011;3122;48.208;11.174;2022-11-20T06:27:38;4.47;;;4.07;;
6177;SDS011;3122;48.208;11.174;2022-11-20T06:32:38;5.50;;;4.20;;
6177;SDS011;3122;48.208;11.174;2022-11-20T06:37:39;5.10;;;4.30;;
6177;SDS011;3122;48.208;11.174;2022-11-20T06:42:39;6.97;;;4.40;;
6177;SDS011;3122;48.208;11.174;2022-11-20T06:47:40;5.87;;;4.40;;
6177;SDS011;3122;48.208;11.174;2022-11-20T06:52:40;5.80;;;4.50;;
6177;SDS011;3122;48.208;11.174;2022-11-20T06:57:41;6.33;;;4.10;;
6177;SDS011;3122;48.208;11.174;2022-11-20T07:02:41;6.03;;;4.53;;
6177;SDS011;3122;48.208;11.174;2022-11-20T07:07:42;9.00;;;4.27;;
6177;SDS011;3122;48.208;11.174;2022-11-20T07:12:48;6.97;;;4.40;;
6177;SDS011;3122;48.208;11.174;2022-11-20T07:17:49;5.30;;;4.47;;
6177;SDS011;3122;48.208;11.174;2022-11-20T07:22:53;5.40;;;4.10;;
6177;SDS011;3122;48.208;11.174;2022-11-20T07:27:58;5.60;;;4.60;;
6177;SDS011;3122;48.208;11.174;2022-11-20T07:33:00;5.00;;;4.30;;
6177;SDS011;3122;48.208;11.174;2022-11-20T07:38:00;5.43;;;4.47;;
6177;SDS011;3122;48.208;11.174;2022-11-20T07:43:01;4.57;;;4.07;;
6177;SDS011;3122;48.208;11.174;2022-11-20T07:48:02;9.67;;;5.63;;
6177;SDS011;3122;48.208;11.174;2022-11-20T07:53:03;6.90;;;5.20;;
6177;SDS011;3122;48.208;11.174;2022-11-20T07:58:04;8.03;;;5.30;;
6177;SDS011;3122;48.208;11.174;2022-11-20T08:03:06;8.33;;;6.13;;
6177;SDS011;3122;48.208;11.174;2022-11-20T08:08:07;6.83;;;6.13;;
6177;SDS011;3122;48.208;11.174;2022-11-20T08:13:08;8.23;;;6.37;;
6177;SDS011;3122;48.208;11.174;2022-11-20T08:18:27;7.40;;;5.33;;
6177;SDS011;3122;48.208;11.174;2022-11-20T08:23:27;9.40;;;5.60;;
6177;SDS011;3122;48.208;11.174;2022-11-20T08:28:28;7.87;;;5.10;;
6177;SDS011;3122;48.208;11.174;2022-11-20T08:33:29;5.50;;;4.90;;
6177;SDS011;3122;48.208;11.174;2022-11-20T08:38:30;7.70;;;4.87;;
6177;SDS011;3122;48.208;11.174;2022-11-20T08:43:31;5.80;;;4.53;;
6177;SDS011;3122;48.208;11.174;2022-11-20T08:48:32;5.50;;;4.20;;
6177;SDS011;3122;48.208;11.174;2022-11-20T08:53:32;4.57;;;3.80;;
6177;SDS011;3122;48.208;11.174;2022-11-20T08:58:33;5.10;;;4.17;;
6177;SDS011;3122;48.208;11.174;2022-11-20T09:03:33;5.00;;;4.00;;
6177;SDS011;3122;48.208;11.174;2022-11-20T09:08:34;6.60;;;4.03;;
6177;SDS011;3122;48.208;11.174;2022-11-20T09:13:36;6.83;;;4.07;;
6177;SDS011;3122;48.208;11.174;2022-11-20T09:18:36;5.50;;;3.43;;
6177;SDS011;3122;48.208;11.174;2022-11-20T09:23:37;5.77;;;3.77;;
6177;SDS011;3122;48.208;11.174;2022-11-20T09:28:39;3.80;;;3.50;;
6177;SDS011;3122;48.208;11.174;2022-11-20T09:33:40;4.93;;;3.90;;
6177;SDS011;3122;48.208;11.174;2022-11-20T09:38:40;4.53;;;3.70;;
6177;SDS011;3122;48.208;11.174;2022-11-20T09:54:18;4.63;;;3.50;;
6177;SDS011;3122;48.208;11.174;2022-11-20T09:59:28;5.57;;;3.47;;
6177;SDS011;3122;48.208;11.174;2022-11-20T10:04:30;3.50;;;3.13;;
6177;SDS011;3122;48.208;11.174;2022-11-20T10:09:34;3.20;;;2.87;;
6177;SDS011;3122;48.208;11.174;2022-11-20T10:14:47;4.30;;;3.40;;
6177;SDS011;3122;48.208;11.174;2022-11-20T10:25:15;3.23;;;2.77;;
6177;SDS011;3122;48.208;11.174;2022-11-20T10:30:19;3.27;;;2.97;;
6177;SDS011;3122;48.208;11.174;2022-11-20T10:35:23;3.83;;;2.90;;
6177;SDS011;3122;48.208;11.174;2022-11-20T10:51:06;5.00;;;3.50;;
6177;SDS011;3122;48.208;11.174;2022-11-20T10:56:22;3.60;;;3.30;;
6177;SDS011;3122;48.208;11.174;2022-11-20T11:01:39;4.57;;;3.60;;
6177;SDS011;3122;48.208;11.174;2022-11-20T11:06:43;4.77;;;3.93;;
6177;SDS011;3122;48.208;11.174;2022-11-20T11:11:48;5.70;;;4.00;;
6177;SDS011;3122;48.208;11.174;2022-11-20T11:16:53;4.20;;;3.60;;
6177;SDS011;3122;48.208;11.174;2022-11-20T11:21:56;4.20;;;3.27;;
6177;SDS011;3122;48.208;11.174;2022-11-20T11:26:58;3.23;;;2.93;;
6177;SDS011;3122;48.208;11.174;2022-11-20T11:32:08;2.83;;;2.63;;
6177;SDS011;3122;48.208;11.174;2022-11-20T11:37:13;2.60;;;2.40;;
6177;SDS011;3122;48.208;11.174;2022-11-20T11:42:18;3.33;;;2.70;;
6177;SDS011;3122;48.208;11.174;2022-11-20T11:52:30;2.50;;;2.30;;
6177;SDS011;3122;48.208;11.174;2022-11-20T12:12:54;3.70;;;2.43;;
6177;SDS011;3122;48.208;11.174;2022-11-20T12:18:00;2.17;;;2.07;;
6177;SDS011;3122;48.208;11.174;2022-11-20T12:23:04;3.93;;;2.60;;
6177;SDS011;3122;48.208;11.174;2022-11-20T12:28:39;3.23;;;2.90;;
6177;SDS011;3122;48.208;11.174;2022-11-20T12:39:06;3.20;;;2.70;;
6177;SDS011;3122;48.208;11.174;2022-11-20T13:00:33;2.80;;;2.60;;
6177;SDS011;3122;48.208;11.174;2022-11-20T13:16:59;4.13;;;3.50;;
6177;SDS011;3122;48.208;11.174;2022-11-20T13:22:00;4.20;;;3.20;;
6177;SDS011;3122;48.208;11.174;2022-11-20T13:32:35;4.90;;;3.70;;
6177;SDS011;3122;48.208;11.174;2022-11-20T13:37:36;3.47;;;3.20;;
6177;SDS011;3122;48.208;11.174;2022-11-20T13:42:45;5.97;;;3.80;;
6177;SDS011;3122;48.208;11.174;2022-11-20T13:47:54;4.33;;;3.93;;
6177;SDS011;3122;48.208;11.174;2022-11-20T13:52:59;6.67;;;5.10;;
6177;SDS011;3122;48.208;11.174;2022-11-20T13:58:15;18.50;;;8.23;;
6177;SDS011;3122;48.208;11.174;2022-11-20T14:03:24;4.70;;;4.20;;
6177;SDS011;3122;48.208;11.174;2022-11-20T14:13:53;4.47;;;3.97;;
6177;SDS011;3122;48.208;11.174;2022-11-20T14:18:54;3.73;;;3.43;;
6177;SDS011;3122;48.208;11.174;2022-11-20T14:24:14;3.20;;;2.90;;
6177;SDS011;3122;48.208;11.174;2022-11-20T14:29:20;5.27;;;3.13;;
6177;SDS011;3122;48.208;11.174;2022-11-20T14:34:27;2.93;;;2.33;;
6177;SDS011;3122;48.208;11.174;2022-11-20T14:39:30;4.20;;;1.83;;
6177;SDS011;3122;48.208;11.174;2022-11-20T14:44:36;3.10;;;2.80;;
6177;SDS011;3122;48.208;11.174;2022-11-20T14:49:36;2.83;;;2.63;;
6177;SDS011;3122;48.208;11.174;2022-11-20T14:54:45;2.87;;;2.67;;
6177;SDS011;3122;48.208;11.174;2022-11-20T14:59:45;3.57;;;3.10;;
6177;SDS011;3122;48.208;11.174;2022-11-20T15:04:47;3.57;;;3.07;;
6177;SDS011;3122;48.208;11.174;2022-11-20T15:10:06;2.60;;;2.40;;
6177;SDS011;3122;48.208;11.174;2022-11-20T15:15:10;2.60;;;2.40;;
6177;SDS011;3122;48.208;11.174;2022-11-20T15:20:15;3.23;;;2.93;;
6177;SDS011;3122;48.208;11.174;2022-11-20T15:25:17;3.37;;;2.07;;
6177;SDS011;3122;48.208;11.174;2022-11-20T15:30:19;2.60;;;2.40;;
6177;SDS011;3122;48.208;11.174;2022-11-20T15:35:24;5.13;;;3.10;;
6177;SDS011;3122;48.208;11.174;2022-11-20T15:40:25;5.00;;;3.70;;
6177;SDS011;3122;48.208;11.174;2022-11-20T15:45:25;3.33;;;3.03;;
6177;SDS011;3122;48.208;11.174;2022-11-20T15:50:30;5.07;;;3.80;;
6177;SDS011;3122;48.208;11.174;2022-11-20T15:55:36;6.27;;;5.27;;
6177;SDS011;3122;48.208;11.174;2022-11-20T16:00:36;4.83;;;3.63;;
6177;SDS011;3122;48.208;11.174;2022-11-20T16:05:37;3.30;;;3.00;;
6177;SDS011;3122;48.208;11.174;2022-11-20T16:10:38;8.17;;;5.60;;
6177;SDS011;3122;48.208;11.174;2022-11-20T16:15:39;11.87;;;7.97;;
6177;SDS011;3122;48.208;11.174;2022-11-20T16:20:47;6.03;;;4.77;;
6177;SDS011;3122;48.208;11.174;2022-11-20T16:25:49;4.60;;;4.20;;
6177;SDS011;3122;48.208;11.174;2022-11-20T16:30:50;5.00;;;4.50;;
6177;SDS011;3122;48.208;11.174;2022-11-20T16:35:51;4.50;;;4.10;;
6177;SDS011;3122;48.208;11.174;2022-11-20T16:40:51;4.30;;;3.90;;
6177;SDS011;3122;48.208;11.174;2022-11-20T16:45:52;3.80;;;3.50;;
6177;SDS011;3122;48.208;11.174;2022-11-20T16:50:52;3.90;;;2.63;;
6177;SDS011;3122;48.208;11.174;2022-11-20T16:55:53;3.10;;;2.90;;
6177;SDS011;3122;48.208;11.174;2022-11-20T17:00:53;4.43;;;3.13;;
6177;SDS011;3122;48.208;11.174;2022-11-20T17:05:54;4.87;;;4.37;;
6177;SDS011;3122;48.208;11.174;2022-11-20T17:10:54;5.77;;;4.23;;
6177;SDS011;3122;48.208;11.174;2022-11-20T17:15:59;4.60;;;3.90;;
6177;SDS011;3122;48.208;11.174;2022-11-20T17:21:01;3.47;;;3.20;;
6177;SDS011;3122;48.208;11.174;2022-11-20T17:31:16;4.37;;;3.87;;
6177;SDS011;3122;48.208;11.174;2022-11-20T17:36:17;3.37;;;3.07;;
6177;SDS011;3122;48.208;11.174;2022-11-20T17:41:22;6.90;;;4.20;;
6177;SDS011;3122;48.208;11.174;2022-11-20T17:46:25;5.50;;;4.30;;
6177;SDS011;3122;48.208;11.174;2022-11-20T17:51:28;4.43;;;4.00;;
6177;SDS011;3122;48.208;11.174;2022-11-20T17:56:30;5.57;;;4.80;;
6177;SDS011;3122;48.208;11.174;2022-11-20T18:01:50;6.00;;;3.97;;
6177;SDS011;3122;48.208;11.174;2022-11-20T18:06:51;6.20;;;5.53;;
6177;SDS011;3122;48.208;11.174;2022-11-20T18:11:52;7.50;;;5.10;;
6177;SDS011;3122;48.208;11.174;2022-11-20T18:16:53;6.03;;;4.40;;
6177;SDS011;3122;48.208;11.174;2022-11-20T18:21:55;7.23;;;4.73;;
6177;SDS011;3122;48.208;11.174;2022-11-20T18:26:57;6.67;;;5.27;;
6177;SDS011;3122;48.208;11.174;2022-11-20T18:31:58;5.97;;;4.93;;
6177;SDS011;3122;48.208;11.174;2022-11-20T18:36:59;6.23;;;4.80;;
6177;SDS011;3122;48.208;11.174;2022-11-20T18:42:00;6.47;;;5.30;;
6177;SDS011;3122;48.208;11.174;2022-11-20T18:47:20;7.80;;;5.53;;
6177;SDS011;3122;48.208;11.174;2022-11-20T18:52:24;8.60;;;4.50;;
6177;SDS011;3122;48.208;11.174;2022-11-20T18:57:25;5.70;;;4.10;;
6177;SDS011;3122;48.208;11.174;2022-11-20T19:02:27;5.23;;;4.70;;
6177;SDS011;3122;48.208;11.174;2022-11-20T19:07:28;5.23;;;4.73;;
6177;SDS011;3122;48.208;11.174;2022-11-20T19:12:28;6.43;;;4.47;;
6177;SDS011;3122;48.208;11.174;2022-11-20T19:17:29;7.20;;;4.73;;
6177;SDS011;3122;48.208;11.174;2022-11-20T19:22:31;5.93;;;5.20;;
6177;SDS011;3122;48.208;11.174;2022-11-20T19:27:32;6.10;;;4.70;;
6177;SDS011;3122;48.208;11.174;2022-11-20T19:32:32;5.40;;;4.90;;
6177;SDS011;3122;48.208;11.174;2022-11-20T19:37:34;5.37;;;4.50;;
6177;SDS011;3122;48.208;11.174;2022-11-20T19:42:35;5.23;;;4.70;;
6177;SDS011;3122;48.208;11.174;2022-11-20T19:47:35;5.23;;;4.07;;
6177;SDS011;3122;48.208;11.174;2022-11-20T19:52:36;3.97;;;3.60;;
6177;SDS011;3122;48.208;11.174;2022-11-20T19:57:36;6.70;;;4.97;;
6177;SDS011;3122;48.208;11.174;2022-11-20T20:02:37;4.73;;;4.33;;
6177;SDS011;3122;48.208;11.174;2022-11-20T20:07:37;4.60;;;4.17;;
6177;SDS011;3122;48.208;11.174;2022-11-20T20:12:39;5.93;;;4.07;;
6177;SDS011;3122;48.208;11.174;2022-11-20T20:17:39;5.13;;;4.63;;
6177;SDS011;3122;48.208;11.174;2022-11-20T20:22:40;5.50;;;4.30;;
6177;SDS011;3122;48.208;11.174;2022-11-20T20:27:40;7.23;;;4.10;;
6177;SDS011;3122;48.208;11.174;2022-11-20T20:32:41;4.93;;;4.43;;
6177;SDS011;3122;48.208;11.174;2022-11-20T20:37:42;6.17;;;4.63;;
6177;SDS011;3122;48.208;11.174;2022-11-20T20:42:42;6.20;;;4.23;;
6177;SDS011;3122;48.208;11.174;2022-11-20T20:47:43;4.40;;;4.00;;
6177;SDS011;3122;48.208;11.174;2022-11-20T20:52:43;5.53;;;4.20;;
6177;SDS011;3122;48.208;11.174;2022-11-20T20:57:44;5.17;;;4.00;;
6177;SDS011;3122;48.208;11.174;2022-11-20T21:02:45;4.40;;;4.00;;
6177;SDS011;3122;48.208;11.174;2022-11-20T21:07:45;4.40;;;4.00;;
6177;SDS011;3122;48.208;11.174;2022-11-20T21:13:04;3.50;;;3.20;;
6177;SDS011;3122;48.208;11.174;2022-11-20T21:18:05;3.77;;;3.47;;
6177;SDS011;3122;48.208;11.174;2022-11-20T21:23:09;3.67;;;3.37;;
6177;SDS011;3122;48.208;11.174;2022-11-20T21:28:10;3.07;;;2.23;;
6177;SDS011;3122;48.208;11.174;2022-11-20T21:33:10;3.97;;;3.17;;
6177;SDS011;3122;48.208;11.174;2022-11-20T21:38:11;2.40;;;2.20;;
6177;SDS011;3122;48.208;11.174;2022-11-20T21:43:11;3.37;;;3.07;;
6177;SDS011;3122;48.208;11.174;2022-11-20T21:48:12;4.13;;;3.73;;
6177;SDS011;3122;48.208;11.174;2022-11-20T21:53:12;3.20;;;2.90;;
6177;SDS011;3122;48.208;11.174;2022-11-20T21:58:13;2.57;;;2.43;;
6177;SDS011;3122;48.208;11.174;2022-11-20T22:03:13;3.50;;;2.80;;
6177;SDS011;3122;48.208;11.174;2022-11-20T22:08:14;3.20;;;2.90;;
6177;SDS011;3122;48.208;11.174;2022-11-20T22:13:15;3.33;;;3.03;;
6177;SDS011;3122;48.208;11.174;2022-11-20T22:18:34;4.87;;;3.63;;
6177;SDS011;3122;48.208;11.174;2022-11-20T22:23:34;2.70;;;2.50;;
6177;SDS011;3122;48.208;11.174;2022-11-20T22:28:35;1.90;;;1.80;;
6177;SDS011;3122;48.208;11.174;2022-11-20T22:33:37;2.00;;;1.80;;
6177;SDS011;3122;48.208;11.174;2022-11-20T22:38:38;2.50;;;1.90;;
6177;SDS011;3122;48.208;11.174;2022-11-20T22:43:39;2.43;;;2.00;;
6177;SDS011;3122;48.208;11.174;2022-11-20T22:48:42;2.37;;;2.23;;
6177;SDS011;3122;48.208;11.174;2022-11-20T22:53:48;1.60;;;1.50;;
6177;SDS011;3122;48.208;11.174;2022-11-20T22:58:50;1.50;;;1.40;;
6177;SDS011;3122;48.208;11.174;2022-11-20T23:03:53;1.53;;;1.43;;
6177;SDS011;3122;48.208;11.174;2022-11-20T23:08:55;1.30;;;1.20;;
6177;SDS011;3122;48.208;11.174;2022-11-20T23:13:57;1.30;;;1.20;;
6177;SDS011;3122;48.208;11.174;2022-11-20T23:19:03;1.00;;;0.90;;
6177;SDS011;3122;48.208;11.174;2022-11-20T23:24:05;1.00;;;1.00;;
6177;SDS011;3122;48.208;11.174;2022-11-20T23:29:07;1.00;;;1.00;;
6177;SDS011;3122;48.208;11.174;2022-11-20T23:34:07;1.20;;;1.20;;
6177;SDS011;3122;48.208;11.174;2022-11-20T23:39:08;1.40;;;1.30;;
6177;SDS011;3122;48.208;11.174;2022-11-20T23:44:09;1.10;;;1.10;;
6177;SDS011;3122;48.208;11.174;2022-11-20T23:49:09;1.00;;;1.00;;
6177;SDS011;3122;48.208;11.174;2022-11-20T23:54:10;1.17;;;1.17;;
6177;SDS011;3122;48.208;11.174;2022-11-20T23:59:10;1.00;;;1.00;;
